sensor_id;sensor_type;location;lat;lon;timestamp;P1;durP1;ratioP1;P2;durP2;ratioP2
80297;SDS011;69599;52.622;9.230;2023-08-12T00:00:09;6.57;;;3.58;;
80297;SDS011;69599;52.622;9.230;2023-08-12T00:02:39;7.07;;;4.07;;
80297;SDS011;69599;52.622;9.230;2023-08-12T00:05:08;5.57;;;3.95;;
80297;SDS011;69599;52.622;9.230;2023-08-12T00:07:36;6.82;;;3.55;;
80297;SDS011;69599;52.622;9.230;2023-08-12T00:10:01;7.05;;;4.88;;
80297;SDS011;69599;52.622;9.230;2023-08-12T00:12:29;9.30;;;4.30;;
80297;SDS011;69599;52.622;9.230;2023-08-12T00:14:56;7.85;;;4.45;;
80297;SDS011;69599;52.622;9.230;2023-08-12T00:17:21;7.30;;;4.50;;
80297;SDS011;69599;52.622;9.230;2023-08-12T00:19:47;6.45;;;3.60;;
80297;SDS011;69599;52.622;9.230;2023-08-12T00:22:12;9.73;;;4.00;;
80297;SDS011;69599;52.622;9.230;2023-08-12T00:24:38;8.80;;;4.03;;
80297;SDS011;69599;52.622;9.230;2023-08-12T00:27:03;8.98;;;3.72;;
80297;SDS011;69599;52.622;9.230;2023-08-12T00:29:29;6.43;;;3.67;;
80297;SDS011;69599;52.622;9.230;2023-08-12T00:31:54;9.18;;;4.82;;
80297;SDS011;69599;52.622;9.230;2023-08-12T00:34:20;6.55;;;3.55;;
80297;SDS011;69599;52.622;9.230;2023-08-12T00:36:46;8.13;;;4.03;;
80297;SDS011;69599;52.622;9.230;2023-08-12T00:39:12;7.38;;;3.88;;
80297;SDS011;69599;52.622;9.230;2023-08-12T00:41:37;6.32;;;3.85;;
80297;SDS011;69599;52.622;9.230;2023-08-12T00:44:03;5.97;;;3.80;;
80297;SDS011;69599;52.622;9.230;2023-08-12T00:46:28;9.57;;;3.72;;
80297;SDS011;69599;52.622;9.230;2023-08-12T00:48:54;5.90;;;3.83;;
80297;SDS011;69599;52.622;9.230;2023-08-12T00:51:19;5.03;;;4.10;;
80297;SDS011;69599;52.622;9.230;2023-08-12T00:53:45;6.78;;;3.80;;
80297;SDS011;69599;52.622;9.230;2023-08-12T00:56:11;6.65;;;3.40;;
80297;SDS011;69599;52.622;9.230;2023-08-12T00:58:37;6.70;;;4.03;;
80297;SDS011;69599;52.622;9.230;2023-08-12T01:01:02;6.15;;;4.18;;
80297;SDS011;69599;52.622;9.230;2023-08-12T01:03:29;7.80;;;4.20;;
80297;SDS011;69599;52.622;9.230;2023-08-12T01:05:55;7.53;;;4.20;;
80297;SDS011;69599;52.622;9.230;2023-08-12T01:08:20;6.20;;;3.88;;
80297;SDS011;69599;52.622;9.230;2023-08-12T01:10:48;9.00;;;4.13;;
80297;SDS011;69599;52.622;9.230;2023-08-12T01:13:26;10.43;;;4.18;;
80297;SDS011;69599;52.622;9.230;2023-08-12T01:15:53;9.20;;;4.28;;
80297;SDS011;69599;52.622;9.230;2023-08-12T01:18:19;6.65;;;4.60;;
80297;SDS011;69599;52.622;9.230;2023-08-12T01:20:45;8.23;;;4.30;;
80297;SDS011;69599;52.622;9.230;2023-08-12T01:23:15;10.25;;;6.00;;
80297;SDS011;69599;52.622;9.230;2023-08-12T01:28:06;6.80;;;4.07;;
80297;SDS011;69599;52.622;9.230;2023-08-12T01:30:32;8.65;;;4.32;;
80297;SDS011;69599;52.622;9.230;2023-08-12T01:35:41;12.68;;;4.63;;
80297;SDS011;69599;52.622;9.230;2023-08-12T01:38:09;6.70;;;4.53;;
80297;SDS011;69599;52.622;9.230;2023-08-12T01:40:35;7.25;;;4.80;;
80297;SDS011;69599;52.622;9.230;2023-08-12T01:43:02;8.65;;;4.95;;
80297;SDS011;69599;52.622;9.230;2023-08-12T01:45:33;10.07;;;4.70;;
80297;SDS011;69599;52.622;9.230;2023-08-12T01:47:58;6.90;;;4.40;;
80297;SDS011;69599;52.622;9.230;2023-08-12T01:50:24;6.03;;;4.45;;
80297;SDS011;69599;52.622;9.230;2023-08-12T01:52:50;5.63;;;4.53;;
80297;SDS011;69599;52.622;9.230;2023-08-12T01:55:16;5.97;;;4.13;;
80297;SDS011;69599;52.622;9.230;2023-08-12T01:57:41;9.65;;;4.63;;
80297;SDS011;69599;52.622;9.230;2023-08-12T02:00:07;7.72;;;4.88;;
80297;SDS011;69599;52.622;9.230;2023-08-12T02:02:33;7.68;;;5.53;;
80297;SDS011;69599;52.622;9.230;2023-08-12T02:04:58;5.82;;;4.82;;
80297;SDS011;69599;52.622;9.230;2023-08-12T02:07:24;10.27;;;5.38;;
80297;SDS011;69599;52.622;9.230;2023-08-12T02:09:49;10.80;;;5.55;;
80297;SDS011;69599;52.622;9.230;2023-08-12T02:12:14;6.22;;;4.50;;
80297;SDS011;69599;52.622;9.230;2023-08-12T02:14:40;9.45;;;5.07;;
80297;SDS011;69599;52.622;9.230;2023-08-12T02:17:05;10.88;;;5.55;;
80297;SDS011;69599;52.622;9.230;2023-08-12T02:19:31;6.25;;;5.25;;
80297;SDS011;69599;52.622;9.230;2023-08-12T02:21:58;10.50;;;5.10;;
80297;SDS011;69599;52.622;9.230;2023-08-12T02:24:23;8.52;;;5.55;;
80297;SDS011;69599;52.622;9.230;2023-08-12T02:26:49;8.52;;;5.28;;
80297;SDS011;69599;52.622;9.230;2023-08-12T02:29:14;10.13;;;5.43;;
80297;SDS011;69599;52.622;9.230;2023-08-12T02:31:40;7.95;;;5.68;;
80297;SDS011;69599;52.622;9.230;2023-08-12T02:34:05;10.40;;;5.43;;
80297;SDS011;69599;52.622;9.230;2023-08-12T02:36:31;7.43;;;6.60;;
80297;SDS011;69599;52.622;9.230;2023-08-12T02:38:56;9.30;;;5.88;;
80297;SDS011;69599;52.622;9.230;2023-08-12T02:41:21;10.27;;;6.68;;
80297;SDS011;69599;52.622;9.230;2023-08-12T02:43:47;6.97;;;5.40;;
80297;SDS011;69599;52.622;9.230;2023-08-12T02:46:12;7.88;;;6.18;;
80297;SDS011;69599;52.622;9.230;2023-08-12T02:48:40;7.45;;;5.20;;
80297;SDS011;69599;52.622;9.230;2023-08-12T02:51:05;8.98;;;6.18;;
80297;SDS011;69599;52.622;9.230;2023-08-12T02:53:31;8.10;;;6.57;;
80297;SDS011;69599;52.622;9.230;2023-08-12T02:55:56;7.32;;;6.13;;
80297;SDS011;69599;52.622;9.230;2023-08-12T02:58:21;7.65;;;6.03;;
80297;SDS011;69599;52.622;9.230;2023-08-12T03:00:47;10.02;;;6.80;;
80297;SDS011;69599;52.622;9.230;2023-08-12T03:03:12;8.18;;;5.82;;
80297;SDS011;69599;52.622;9.230;2023-08-12T03:05:37;7.80;;;6.22;;
80297;SDS011;69599;52.622;9.230;2023-08-12T03:08:03;9.93;;;6.28;;
80297;SDS011;69599;52.622;9.230;2023-08-12T03:10:29;7.55;;;5.95;;
80297;SDS011;69599;52.622;9.230;2023-08-12T03:12:55;9.43;;;6.47;;
80297;SDS011;69599;52.622;9.230;2023-08-12T03:15:20;8.57;;;7.05;;
80297;SDS011;69599;52.622;9.230;2023-08-12T03:17:46;10.00;;;7.82;;
80297;SDS011;69599;52.622;9.230;2023-08-12T03:20:11;8.10;;;7.22;;
80297;SDS011;69599;52.622;9.230;2023-08-12T03:22:37;8.45;;;6.82;;
80297;SDS011;69599;52.622;9.230;2023-08-12T03:25:03;9.75;;;6.75;;
80297;SDS011;69599;52.622;9.230;2023-08-12T03:27:29;9.02;;;6.88;;
80297;SDS011;69599;52.622;9.230;2023-08-12T03:29:55;8.95;;;6.97;;
80297;SDS011;69599;52.622;9.230;2023-08-12T03:32:20;9.38;;;8.05;;
80297;SDS011;69599;52.622;9.230;2023-08-12T03:34:45;10.10;;;7.03;;
80297;SDS011;69599;52.622;9.230;2023-08-12T03:37:11;11.27;;;7.97;;
80297;SDS011;69599;52.622;9.230;2023-08-12T03:39:36;8.65;;;7.63;;
80297;SDS011;69599;52.622;9.230;2023-08-12T03:42:02;10.15;;;7.68;;
80297;SDS011;69599;52.622;9.230;2023-08-12T03:44:27;10.32;;;7.47;;
80297;SDS011;69599;52.622;9.230;2023-08-12T03:46:52;11.93;;;8.15;;
80297;SDS011;69599;52.622;9.230;2023-08-12T03:49:18;11.80;;;8.75;;
80297;SDS011;69599;52.622;9.230;2023-08-12T03:51:43;14.77;;;8.27;;
80297;SDS011;69599;52.622;9.230;2023-08-12T03:54:08;9.48;;;8.48;;
80297;SDS011;69599;52.622;9.230;2023-08-12T03:56:34;13.00;;;8.52;;
80297;SDS011;69599;52.622;9.230;2023-08-12T03:58:59;11.35;;;8.43;;
80297;SDS011;69599;52.622;9.230;2023-08-12T04:01:25;9.60;;;8.02;;
80297;SDS011;69599;52.622;9.230;2023-08-12T04:03:50;12.05;;;8.40;;
80297;SDS011;69599;52.622;9.230;2023-08-12T04:06:16;12.70;;;8.57;;
80297;SDS011;69599;52.622;9.230;2023-08-12T04:08:41;9.77;;;8.77;;
80297;SDS011;69599;52.622;9.230;2023-08-12T04:11:06;15.43;;;9.10;;
80297;SDS011;69599;52.622;9.230;2023-08-12T04:13:32;12.70;;;9.88;;
80297;SDS011;69599;52.622;9.230;2023-08-12T04:15:57;13.32;;;9.90;;
80297;SDS011;69599;52.622;9.230;2023-08-12T04:18:23;12.13;;;9.25;;
80297;SDS011;69599;52.622;9.230;2023-08-12T04:20:48;14.85;;;9.65;;
80297;SDS011;69599;52.622;9.230;2023-08-12T04:23:15;11.68;;;9.05;;
80297;SDS011;69599;52.622;9.230;2023-08-12T04:25:42;10.98;;;9.07;;
80297;SDS011;69599;52.622;9.230;2023-08-12T04:28:09;12.52;;;9.38;;
80297;SDS011;69599;52.622;9.230;2023-08-12T04:30:34;11.60;;;9.38;;
80297;SDS011;69599;52.622;9.230;2023-08-12T04:33:00;11.90;;;9.55;;
80297;SDS011;69599;52.622;9.230;2023-08-12T04:35:26;14.15;;;10.40;;
80297;SDS011;69599;52.622;9.230;2023-08-12T04:37:51;13.02;;;10.75;;
80297;SDS011;69599;52.622;9.230;2023-08-12T04:40:16;16.98;;;11.05;;
80297;SDS011;69599;52.622;9.230;2023-08-12T04:42:42;14.40;;;11.27;;
80297;SDS011;69599;52.622;9.230;2023-08-12T04:45:07;14.45;;;11.85;;
80297;SDS011;69599;52.622;9.230;2023-08-12T04:47:33;15.20;;;12.68;;
80297;SDS011;69599;52.622;9.230;2023-08-12T04:49:58;16.02;;;12.82;;
80297;SDS011;69599;52.622;9.230;2023-08-12T04:52:25;14.90;;;12.75;;
80297;SDS011;69599;52.622;9.230;2023-08-12T04:54:52;16.08;;;12.32;;
80297;SDS011;69599;52.622;9.230;2023-08-12T04:57:18;16.60;;;12.23;;
80297;SDS011;69599;52.622;9.230;2023-08-12T04:59:43;16.63;;;12.05;;
80297;SDS011;69599;52.622;9.230;2023-08-12T05:02:09;15.00;;;11.70;;
80297;SDS011;69599;52.622;9.230;2023-08-12T05:04:34;15.02;;;11.95;;
80297;SDS011;69599;52.622;9.230;2023-08-12T05:06:59;17.60;;;13.13;;
80297;SDS011;69599;52.622;9.230;2023-08-12T05:09:25;17.88;;;12.75;;
80297;SDS011;69599;52.622;9.230;2023-08-12T05:11:50;15.98;;;12.18;;
80297;SDS011;69599;52.622;9.230;2023-08-12T05:14:16;17.33;;;13.05;;
80297;SDS011;69599;52.622;9.230;2023-08-12T05:16:41;14.50;;;12.48;;
80297;SDS011;69599;52.622;9.230;2023-08-12T05:19:07;15.68;;;11.95;;
80297;SDS011;69599;52.622;9.230;2023-08-12T05:21:32;16.92;;;13.30;;
80297;SDS011;69599;52.622;9.230;2023-08-12T05:23:57;16.17;;;12.90;;
80297;SDS011;69599;52.622;9.230;2023-08-12T05:26:23;16.55;;;14.00;;
80297;SDS011;69599;52.622;9.230;2023-08-12T05:28:48;17.45;;;13.48;;
80297;SDS011;69599;52.622;9.230;2023-08-12T05:31:13;16.38;;;12.80;;
80297;SDS011;69599;52.622;9.230;2023-08-12T05:33:39;18.00;;;14.75;;
80297;SDS011;69599;52.622;9.230;2023-08-12T05:36:04;19.05;;;14.15;;
80297;SDS011;69599;52.622;9.230;2023-08-12T05:38:30;19.27;;;14.35;;
80297;SDS011;69599;52.622;9.230;2023-08-12T05:40:55;18.42;;;14.30;;
80297;SDS011;69599;52.622;9.230;2023-08-12T05:43:21;21.10;;;15.75;;
80297;SDS011;69599;52.622;9.230;2023-08-12T05:45:47;21.15;;;15.70;;
80297;SDS011;69599;52.622;9.230;2023-08-12T05:48:13;21.05;;;16.67;;
80297;SDS011;69599;52.622;9.230;2023-08-12T05:50:38;25.77;;;17.13;;
80297;SDS011;69599;52.622;9.230;2023-08-12T05:53:03;19.42;;;15.93;;
80297;SDS011;69599;52.622;9.230;2023-08-12T05:55:29;21.60;;;16.98;;
80297;SDS011;69599;52.622;9.230;2023-08-12T05:57:54;19.77;;;15.40;;
80297;SDS011;69599;52.622;9.230;2023-08-12T06:00:20;22.55;;;15.88;;
80297;SDS011;69599;52.622;9.230;2023-08-12T06:02:45;20.60;;;15.15;;
80297;SDS011;69599;52.622;9.230;2023-08-12T06:05:10;18.38;;;14.63;;
80297;SDS011;69599;52.622;9.230;2023-08-12T06:07:36;19.27;;;14.77;;
80297;SDS011;69599;52.622;9.230;2023-08-12T06:10:01;17.55;;;15.25;;
80297;SDS011;69599;52.622;9.230;2023-08-12T06:12:27;18.85;;;15.30;;
80297;SDS011;69599;52.622;9.230;2023-08-12T06:14:52;20.10;;;14.85;;
80297;SDS011;69599;52.622;9.230;2023-08-12T06:17:18;22.45;;;14.18;;
80297;SDS011;69599;52.622;9.230;2023-08-12T06:19:43;19.15;;;14.95;;
80297;SDS011;69599;52.622;9.230;2023-08-12T06:22:09;25.02;;;15.43;;
80297;SDS011;69599;52.622;9.230;2023-08-12T06:24:34;20.60;;;15.60;;
80297;SDS011;69599;52.622;9.230;2023-08-12T06:27:00;21.05;;;14.80;;
80297;SDS011;69599;52.622;9.230;2023-08-12T06:29:25;19.77;;;14.75;;
80297;SDS011;69599;52.622;9.230;2023-08-12T06:31:51;20.08;;;15.82;;
80297;SDS011;69599;52.622;9.230;2023-08-12T06:34:17;22.00;;;15.98;;
80297;SDS011;69599;52.622;9.230;2023-08-12T06:36:42;23.08;;;15.57;;
80297;SDS011;69599;52.622;9.230;2023-08-12T06:39:08;20.70;;;16.45;;
80297;SDS011;69599;52.622;9.230;2023-08-12T06:41:33;23.13;;;17.10;;
80297;SDS011;69599;52.622;9.230;2023-08-12T06:43:59;21.83;;;16.65;;
80297;SDS011;69599;52.622;9.230;2023-08-12T06:46:25;21.83;;;15.55;;
80297;SDS011;69599;52.622;9.230;2023-08-12T06:48:51;21.92;;;16.13;;
80297;SDS011;69599;52.622;9.230;2023-08-12T06:51:16;25.38;;;16.42;;
80297;SDS011;69599;52.622;9.230;2023-08-12T06:53:42;23.48;;;15.77;;
80297;SDS011;69599;52.622;9.230;2023-08-12T06:56:07;22.75;;;16.98;;
80297;SDS011;69599;52.622;9.230;2023-08-12T06:58:33;20.40;;;15.63;;
80297;SDS011;69599;52.622;9.230;2023-08-12T07:00:58;23.30;;;17.90;;
80297;SDS011;69599;52.622;9.230;2023-08-12T07:03:26;23.65;;;17.05;;
80297;SDS011;69599;52.622;9.230;2023-08-12T07:05:52;22.27;;;15.50;;
80297;SDS011;69599;52.622;9.230;2023-08-12T07:08:18;22.30;;;15.70;;
80297;SDS011;69599;52.622;9.230;2023-08-12T07:10:43;19.38;;;15.90;;
80297;SDS011;69599;52.622;9.230;2023-08-12T07:13:09;23.95;;;16.67;;
80297;SDS011;69599;52.622;9.230;2023-08-12T07:15:34;22.05;;;16.73;;
80297;SDS011;69599;52.622;9.230;2023-08-12T07:18:00;19.38;;;15.95;;
80297;SDS011;69599;52.622;9.230;2023-08-12T07:20:26;24.20;;;17.10;;
80297;SDS011;69599;52.622;9.230;2023-08-12T07:22:51;25.42;;;16.65;;
80297;SDS011;69599;52.622;9.230;2023-08-12T07:25:16;20.92;;;16.15;;
80297;SDS011;69599;52.622;9.230;2023-08-12T07:27:42;18.88;;;15.35;;
80297;SDS011;69599;52.622;9.230;2023-08-12T07:30:07;21.70;;;15.60;;
80297;SDS011;69599;52.622;9.230;2023-08-12T07:32:33;23.88;;;17.30;;
80297;SDS011;69599;52.622;9.230;2023-08-12T07:34:59;19.58;;;16.00;;
80297;SDS011;69599;52.622;9.230;2023-08-12T07:37:25;21.17;;;15.68;;
80297;SDS011;69599;52.622;9.230;2023-08-12T07:39:50;20.52;;;15.38;;
80297;SDS011;69599;52.622;9.230;2023-08-12T07:42:16;19.42;;;14.68;;
80297;SDS011;69599;52.622;9.230;2023-08-12T07:44:41;19.83;;;15.27;;
80297;SDS011;69599;52.622;9.230;2023-08-12T07:47:06;19.70;;;15.38;;
80297;SDS011;69599;52.622;9.230;2023-08-12T07:49:32;19.80;;;14.80;;
80297;SDS011;69599;52.622;9.230;2023-08-12T07:51:57;20.58;;;15.55;;
80297;SDS011;69599;52.622;9.230;2023-08-12T07:54:22;19.92;;;15.02;;
80297;SDS011;69599;52.622;9.230;2023-08-12T07:56:48;19.67;;;14.60;;
80297;SDS011;69599;52.622;9.230;2023-08-12T07:59:13;18.85;;;14.55;;
80297;SDS011;69599;52.622;9.230;2023-08-12T08:01:39;16.88;;;13.15;;
80297;SDS011;69599;52.622;9.230;2023-08-12T08:04:05;19.25;;;14.00;;
80297;SDS011;69599;52.622;9.230;2023-08-12T08:06:30;22.17;;;13.45;;
80297;SDS011;69599;52.622;9.230;2023-08-12T08:08:55;18.25;;;14.05;;
80297;SDS011;69599;52.622;9.230;2023-08-12T08:11:21;16.67;;;13.45;;
80297;SDS011;69599;52.622;9.230;2023-08-12T08:13:46;19.17;;;13.38;;
80297;SDS011;69599;52.622;9.230;2023-08-12T08:16:12;19.35;;;13.93;;
80297;SDS011;69599;52.622;9.230;2023-08-12T08:18:37;17.92;;;12.20;;
80297;SDS011;69599;52.622;9.230;2023-08-12T08:21:03;16.52;;;11.93;;
80297;SDS011;69599;52.622;9.230;2023-08-12T08:23:28;18.45;;;11.70;;
80297;SDS011;69599;52.622;9.230;2023-08-12T08:25:54;16.98;;;12.68;;
80297;SDS011;69599;52.622;9.230;2023-08-12T08:28:19;12.90;;;10.38;;
80297;SDS011;69599;52.622;9.230;2023-08-12T08:30:44;16.95;;;11.30;;
80297;SDS011;69599;52.622;9.230;2023-08-12T08:33:10;13.57;;;10.07;;
80297;SDS011;69599;52.622;9.230;2023-08-12T08:35:35;14.68;;;10.88;;
80297;SDS011;69599;52.622;9.230;2023-08-12T08:38:00;17.73;;;11.20;;
80297;SDS011;69599;52.622;9.230;2023-08-12T08:40:26;14.43;;;10.63;;
80297;SDS011;69599;52.622;9.230;2023-08-12T08:42:52;13.43;;;10.43;;
80297;SDS011;69599;52.622;9.230;2023-08-12T08:45:18;14.30;;;10.75;;
80297;SDS011;69599;52.622;9.230;2023-08-12T08:47:46;17.95;;;12.95;;
80297;SDS011;69599;52.622;9.230;2023-08-12T08:50:12;16.77;;;12.38;;
80297;SDS011;69599;52.622;9.230;2023-08-12T08:52:38;17.27;;;13.43;;
80297;SDS011;69599;52.622;9.230;2023-08-12T08:55:04;19.13;;;12.75;;
80297;SDS011;69599;52.622;9.230;2023-08-12T08:57:30;17.60;;;12.93;;
80297;SDS011;69599;52.622;9.230;2023-08-12T08:59:57;15.82;;;12.43;;
80297;SDS011;69599;52.622;9.230;2023-08-12T09:02:22;15.73;;;11.82;;
80297;SDS011;69599;52.622;9.230;2023-08-12T09:04:48;20.27;;;13.32;;
80297;SDS011;69599;52.622;9.230;2023-08-12T09:07:14;19.08;;;12.75;;
80297;SDS011;69599;52.622;9.230;2023-08-12T09:09:46;20.02;;;13.43;;
80297;SDS011;69599;52.622;9.230;2023-08-12T09:12:15;17.30;;;13.38;;
80297;SDS011;69599;52.622;9.230;2023-08-12T09:14:42;17.52;;;13.75;;
80297;SDS011;69599;52.622;9.230;2023-08-12T09:17:08;21.10;;;14.57;;
80297;SDS011;69599;52.622;9.230;2023-08-12T09:19:34;17.63;;;13.32;;
80297;SDS011;69599;52.622;9.230;2023-08-12T09:21:59;18.35;;;13.63;;
80297;SDS011;69599;52.622;9.230;2023-08-12T09:24:25;17.27;;;13.25;;
80297;SDS011;69599;52.622;9.230;2023-08-12T09:26:52;18.23;;;13.10;;
80297;SDS011;69599;52.622;9.230;2023-08-12T09:29:17;19.27;;;13.90;;
80297;SDS011;69599;52.622;9.230;2023-08-12T09:31:42;17.13;;;13.00;;
80297;SDS011;69599;52.622;9.230;2023-08-12T09:34:08;23.50;;;14.15;;
80297;SDS011;69599;52.622;9.230;2023-08-12T09:36:33;18.25;;;13.65;;
80297;SDS011;69599;52.622;9.230;2023-08-12T09:38:59;20.45;;;14.40;;
80297;SDS011;69599;52.622;9.230;2023-08-12T09:41:26;16.13;;;12.55;;
80297;SDS011;69599;52.622;9.230;2023-08-12T09:43:52;20.35;;;13.88;;
80297;SDS011;69599;52.622;9.230;2023-08-12T09:46:18;18.10;;;12.98;;
80297;SDS011;69599;52.622;9.230;2023-08-12T09:48:48;20.40;;;13.75;;
80297;SDS011;69599;52.622;9.230;2023-08-12T09:51:15;19.73;;;12.93;;
80297;SDS011;69599;52.622;9.230;2023-08-12T09:53:41;17.08;;;12.85;;
80297;SDS011;69599;52.622;9.230;2023-08-12T09:56:07;17.55;;;12.85;;
80297;SDS011;69599;52.622;9.230;2023-08-12T09:58:33;19.05;;;13.15;;
80297;SDS011;69599;52.622;9.230;2023-08-12T10:01:02;21.85;;;13.02;;
80297;SDS011;69599;52.622;9.230;2023-08-12T10:03:28;16.35;;;12.50;;
80297;SDS011;69599;52.622;9.230;2023-08-12T10:05:54;18.20;;;13.55;;
80297;SDS011;69599;52.622;9.230;2023-08-12T10:08:19;20.55;;;14.85;;
80297;SDS011;69599;52.622;9.230;2023-08-12T10:10:45;18.10;;;12.60;;
80297;SDS011;69599;52.622;9.230;2023-08-12T10:13:10;19.48;;;13.80;;
80297;SDS011;69599;52.622;9.230;2023-08-12T10:15:36;19.27;;;14.02;;
80297;SDS011;69599;52.622;9.230;2023-08-12T10:18:03;21.95;;;14.10;;
80297;SDS011;69599;52.622;9.230;2023-08-12T10:20:30;19.27;;;13.88;;
80297;SDS011;69599;52.622;9.230;2023-08-12T10:22:56;18.67;;;13.43;;
80297;SDS011;69599;52.622;9.230;2023-08-12T10:25:22;20.17;;;14.02;;
80297;SDS011;69599;52.622;9.230;2023-08-12T10:27:50;20.60;;;13.13;;
80297;SDS011;69599;52.622;9.230;2023-08-12T10:30:15;18.10;;;13.60;;
80297;SDS011;69599;52.622;9.230;2023-08-12T10:32:41;19.17;;;14.57;;
80297;SDS011;69599;52.622;9.230;2023-08-12T10:35:07;19.13;;;13.93;;
80297;SDS011;69599;52.622;9.230;2023-08-12T10:37:33;19.65;;;13.57;;
80297;SDS011;69599;52.622;9.230;2023-08-12T10:39:59;17.05;;;13.57;;
80297;SDS011;69599;52.622;9.230;2023-08-12T10:42:45;17.77;;;12.05;;
80297;SDS011;69599;52.622;9.230;2023-08-12T10:45:12;15.23;;;11.95;;
80297;SDS011;69599;52.622;9.230;2023-08-12T10:47:42;13.13;;;10.68;;
80297;SDS011;69599;52.622;9.230;2023-08-12T10:50:22;11.48;;;9.43;;
80297;SDS011;69599;52.622;9.230;2023-08-12T10:52:50;12.63;;;8.95;;
80297;SDS011;69599;52.622;9.230;2023-08-12T10:57:49;12.65;;;8.98;;
80297;SDS011;69599;52.622;9.230;2023-08-12T11:00:19;10.48;;;7.32;;
80297;SDS011;69599;52.622;9.230;2023-08-12T11:02:57;9.93;;;7.47;;
80297;SDS011;69599;52.622;9.230;2023-08-12T11:05:23;8.50;;;7.55;;
80297;SDS011;69599;52.622;9.230;2023-08-12T11:07:55;11.55;;;7.95;;
80297;SDS011;69599;52.622;9.230;2023-08-12T11:10:27;10.93;;;7.80;;
80297;SDS011;69599;52.622;9.230;2023-08-12T11:12:55;9.90;;;8.90;;
80297;SDS011;69599;52.622;9.230;2023-08-12T11:15:31;9.15;;;7.22;;
80297;SDS011;69599;52.622;9.230;2023-08-12T11:18:05;9.98;;;7.80;;
80297;SDS011;69599;52.622;9.230;2023-08-12T11:20:35;9.20;;;6.93;;
80297;SDS011;69599;52.622;9.230;2023-08-12T11:23:01;9.02;;;7.00;;
80297;SDS011;69599;52.622;9.230;2023-08-12T11:25:28;8.32;;;7.13;;
80297;SDS011;69599;52.622;9.230;2023-08-12T11:27:54;10.52;;;7.40;;
80297;SDS011;69599;52.622;9.230;2023-08-12T11:30:19;7.65;;;6.85;;
80297;SDS011;69599;52.622;9.230;2023-08-12T11:32:47;8.82;;;6.70;;
80297;SDS011;69599;52.622;9.230;2023-08-12T11:35:14;8.23;;;6.38;;
80297;SDS011;69599;52.622;9.230;2023-08-12T11:37:41;7.20;;;6.50;;
80297;SDS011;69599;52.622;9.230;2023-08-12T11:40:10;7.07;;;5.70;;
80297;SDS011;69599;52.622;9.230;2023-08-12T11:42:39;9.75;;;6.68;;
80297;SDS011;69599;52.622;9.230;2023-08-12T11:45:06;8.45;;;6.72;;
80297;SDS011;69599;52.622;9.230;2023-08-12T11:47:32;8.65;;;6.30;;
80297;SDS011;69599;52.622;9.230;2023-08-12T11:49:58;7.82;;;7.03;;
80297;SDS011;69599;52.622;9.230;2023-08-12T11:52:24;7.68;;;6.63;;
80297;SDS011;69599;52.622;9.230;2023-08-12T11:54:50;6.72;;;5.60;;
80297;SDS011;69599;52.622;9.230;2023-08-12T11:57:16;7.18;;;5.70;;
80297;SDS011;69599;52.622;9.230;2023-08-12T11:59:42;7.15;;;6.20;;
80297;SDS011;69599;52.622;9.230;2023-08-12T12:02:07;8.30;;;6.53;;
80297;SDS011;69599;52.622;9.230;2023-08-12T12:04:33;6.97;;;6.28;;
80297;SDS011;69599;52.622;9.230;2023-08-12T12:06:58;6.05;;;5.25;;
80297;SDS011;69599;52.622;9.230;2023-08-12T12:09:24;6.60;;;5.03;;
80297;SDS011;69599;52.622;9.230;2023-08-12T12:11:52;5.18;;;4.68;;
80297;SDS011;69599;52.622;9.230;2023-08-12T12:14:17;7.95;;;4.97;;
80297;SDS011;69599;52.622;9.230;2023-08-12T12:16:43;5.85;;;4.97;;
80297;SDS011;69599;52.622;9.230;2023-08-12T12:19:18;7.30;;;4.50;;
80297;SDS011;69599;52.622;9.230;2023-08-12T12:21:46;5.75;;;4.93;;
80297;SDS011;69599;52.622;9.230;2023-08-12T12:24:16;5.78;;;4.88;;
80297;SDS011;69599;52.622;9.230;2023-08-12T12:26:42;5.85;;;5.15;;
80297;SDS011;69599;52.622;9.230;2023-08-12T12:29:08;7.68;;;5.22;;
80297;SDS011;69599;52.622;9.230;2023-08-12T12:31:36;5.82;;;5.18;;
80297;SDS011;69599;52.622;9.230;2023-08-12T12:34:02;9.13;;;6.53;;
80297;SDS011;69599;52.622;9.230;2023-08-12T12:36:32;8.15;;;6.20;;
80297;SDS011;69599;52.622;9.230;2023-08-12T12:38:59;7.95;;;5.72;;
80297;SDS011;69599;52.622;9.230;2023-08-12T12:41:24;7.50;;;6.68;;
80297;SDS011;69599;52.622;9.230;2023-08-12T12:43:49;7.20;;;6.43;;
80297;SDS011;69599;52.622;9.230;2023-08-12T12:46:15;9.27;;;7.15;;
80297;SDS011;69599;52.622;9.230;2023-08-12T12:48:41;9.07;;;8.13;;
80297;SDS011;69599;52.622;9.230;2023-08-12T12:51:10;10.30;;;7.70;;
80297;SDS011;69599;52.622;9.230;2023-08-12T12:53:36;6.35;;;4.63;;
80297;SDS011;69599;52.622;9.230;2023-08-12T12:56:02;6.68;;;5.53;;
80297;SDS011;69599;52.622;9.230;2023-08-12T12:58:32;5.20;;;4.28;;
80297;SDS011;69599;52.622;9.230;2023-08-12T13:00:59;4.40;;;3.63;;
80297;SDS011;69599;52.622;9.230;2023-08-12T13:03:25;3.53;;;3.00;;
80297;SDS011;69599;52.622;9.230;2023-08-12T13:05:50;3.50;;;2.90;;
80297;SDS011;69599;52.622;9.230;2023-08-12T13:08:16;3.00;;;2.50;;
80297;SDS011;69599;52.622;9.230;2023-08-12T13:10:41;4.30;;;3.60;;
80297;SDS011;69599;52.622;9.230;2023-08-12T13:13:06;4.40;;;4.00;;
80297;SDS011;69599;52.622;9.230;2023-08-12T13:15:32;6.82;;;4.50;;
80297;SDS011;69599;52.622;9.230;2023-08-12T13:17:57;4.03;;;3.03;;
80297;SDS011;69599;52.622;9.230;2023-08-12T13:20:23;4.28;;;3.10;;
80297;SDS011;69599;52.622;9.230;2023-08-12T13:22:48;3.25;;;2.90;;
80297;SDS011;69599;52.622;9.230;2023-08-12T13:25:13;3.03;;;2.40;;
80297;SDS011;69599;52.622;9.230;2023-08-12T13:27:39;3.75;;;2.90;;
80297;SDS011;69599;52.622;9.230;2023-08-12T13:30:05;3.67;;;2.70;;
80297;SDS011;69599;52.622;9.230;2023-08-12T13:32:31;2.50;;;2.15;;
80297;SDS011;69599;52.622;9.230;2023-08-12T13:34:56;4.22;;;2.47;;
80297;SDS011;69599;52.622;9.230;2023-08-12T13:37:21;2.55;;;2.22;;
80297;SDS011;69599;52.622;9.230;2023-08-12T13:39:47;2.97;;;2.67;;
80297;SDS011;69599;52.622;9.230;2023-08-12T13:42:12;2.80;;;2.50;;
80297;SDS011;69599;52.622;9.230;2023-08-12T13:44:38;5.20;;;2.88;;
80297;SDS011;69599;52.622;9.230;2023-08-12T13:47:03;3.47;;;3.13;;
80297;SDS011;69599;52.622;9.230;2023-08-12T13:49:28;2.88;;;2.65;;
80297;SDS011;69599;52.622;9.230;2023-08-12T13:51:54;3.67;;;3.17;;
80297;SDS011;69599;52.622;9.230;2023-08-12T13:54:20;4.18;;;3.20;;
80297;SDS011;69599;52.622;9.230;2023-08-12T13:56:45;3.72;;;3.30;;
80297;SDS011;69599;52.622;9.230;2023-08-12T13:59:10;3.55;;;3.20;;
80297;SDS011;69599;52.622;9.230;2023-08-12T14:01:36;3.92;;;3.03;;
80297;SDS011;69599;52.622;9.230;2023-08-12T14:04:01;3.85;;;3.47;;
80297;SDS011;69599;52.622;9.230;2023-08-12T14:06:26;4.28;;;3.35;;
80297;SDS011;69599;52.622;9.230;2023-08-12T14:08:52;3.63;;;3.33;;
80297;SDS011;69599;52.622;9.230;2023-08-12T14:11:17;4.30;;;3.90;;
80297;SDS011;69599;52.622;9.230;2023-08-12T14:13:43;3.40;;;3.10;;
80297;SDS011;69599;52.622;9.230;2023-08-12T14:16:08;3.67;;;3.38;;
80297;SDS011;69599;52.622;9.230;2023-08-12T14:18:34;3.25;;;2.95;;
80297;SDS011;69599;52.622;9.230;2023-08-12T14:20:59;2.97;;;2.67;;
80297;SDS011;69599;52.622;9.230;2023-08-12T14:23:25;2.78;;;2.38;;
80297;SDS011;69599;52.622;9.230;2023-08-12T14:25:50;2.40;;;2.20;;
80297;SDS011;69599;52.622;9.230;2023-08-12T14:28:15;2.50;;;2.30;;
80297;SDS011;69599;52.622;9.230;2023-08-12T14:30:41;2.90;;;2.30;;
80297;SDS011;69599;52.622;9.230;2023-08-12T14:33:06;2.55;;;2.35;;
80297;SDS011;69599;52.622;9.230;2023-08-12T14:35:33;2.50;;;2.30;;